Ruckersville, Virginia
Current Conditions -  °F | °C
As of 2:53 PM on Friday 19 Dec 2014 (Local Time) from KCHO Reporting Station
Clear Clear  
Wind Chill: 41°   Ceiling: Unl
Heat Index: 44°   Visibility: 10mi
Dew Point: 23°   Wind: 6mph
Humidity: 43%   Direction: NA
Pressure: 30.12"   Gusts: NA
Location:  38.23°N, 78.37°W
Report Text: KCHO 191953Z VRB05KT 10SM CLR 07/M05 A3012 RMK AO2 SLP203 T00671050
Loading
Personal Weather Stations






























Interactive Weather Map New forecast layout! Learn more

10-Day Weather Forecast

Advertisements
Track Severe Weather on mobile